Time;durP1;ratioP1;P1;durP2;ratioP2;P2;SDS_P1;SDS_P2;PMS_P1;PMS_P2;Temp;Humidity;BMP_temperature;BMP_pressure;BME280_temperature;BME280_humidity;BME280_pressure;Samples;Min_cycle;Max_cycle;Signal;HPM_P1;HPM_P2
2022/05/10 00:00:32;;;;;;;1.55;0.75;;;;;;;20.51;27.63;99799.44;5156830;27;20031;-68
2022/05/10 00:02:59;;;;;;;3.25;0.80;;;;;;;20.49;27.80;99796.09;5140526;27;20443;-69
2022/05/10 00:05:32;;;;;;;1.25;0.60;;;;;;;20.47;27.84;99791.94;5136791;27;20019;-69
2022/05/10 00:07:59;;;;;;;0.95;0.40;;;;;;;20.47;27.70;99790.06;5136201;27;20087;-70
2022/05/10 00:10:25;;;;;;;2.53;0.88;;;;;;;20.49;27.57;99784.53;5136620;27;20041;-68
2022/05/10 00:12:51;;;;;;;1.08;0.55;;;;;;;20.52;27.53;99784.16;5147555;27;20062;-68
2022/05/10 00:15:17;;;;;;;1.23;0.80;;;;;;;20.57;27.56;99787.13;5153899;27;20041;-69
2022/05/10 00:17:43;;;;;;;3.65;0.73;;;;;;;20.64;27.58;99782.72;5156176;27;20022;-67
2022/05/10 00:20:12;;;;;;;5.80;0.88;;;;;;;20.70;27.45;99786.53;5156862;27;20065;-68
2022/05/10 00:22:38;;;;;;;1.15;0.60;;;;;;;20.72;27.64;99779.13;5150004;27;20038;-66
2022/05/10 00:25:07;;;;;;;2.55;1.15;;;;;;;20.76;27.35;99785.00;5155765;27;20038;-68
2022/05/10 00:27:32;;;;;;;2.67;0.75;;;;;;;20.77;27.37;99778.63;5156132;27;20034;-69
2022/05/10 00:29:58;;;;;;;1.10;0.55;;;;;;;20.78;27.37;99788.34;5154849;27;20031;-69
2022/05/10 00:32:28;;;;;;;2.30;0.68;;;;;;;20.78;27.50;99783.81;5155137;27;20049;-68
2022/05/10 00:34:54;;;;;;;1.13;0.60;;;;;;;20.65;27.26;99781.72;5155372;27;20027;-68
2022/05/10 00:37:21;;;;;;;1.38;0.47;;;;;;;20.45;27.59;99775.16;5153332;27;20031;-69
2022/05/10 00:39:47;;;;;;;3.40;0.70;;;;;;;20.23;27.68;99781.16;5156287;27;20062;-70
2022/05/10 00:42:22;;;;;;;1.23;0.60;;;;;;;20.04;27.91;99769.03;5152646;27;20065;-66
2022/05/10 00:44:57;;;;;;;2.40;0.60;;;;;;;19.94;28.12;99774.63;5156039;27;20057;-70
2022/05/10 00:47:28;;;;;;;2.17;0.80;;;;;;;19.82;28.11;99779.53;5154904;27;20031;-68
2022/05/10 00:50:26;;;;;;;1.08;0.70;;;;;;;19.72;28.46;99772.69;5148171;27;20042;-68
2022/05/10 00:53:19;;;;;;;5.30;0.47;;;;;;;19.61;28.17;99766.69;5107888;27;20572;-66
2022/05/10 00:56:33;;;;;;;0.73;0.40;;;;;;;19.50;28.53;99769.78;5187415;27;20586;-67
2022/05/10 00:59:08;;;;;;;1.50;0.55;;;;;;;19.42;28.43;99770.63;5169327;27;20125;-65
2022/05/10 01:01:36;;;;;;;1.65;0.60;;;;;;;19.36;28.58;99772.16;5171596;27;20026;-69
2022/05/10 01:04:15;;;;;;;2.83;0.70;;;;;;;19.31;28.59;99768.34;5149198;27;20027;-70
2022/05/10 01:07:01;;;;;;;2.65;0.60;;;;;;;19.27;28.69;99770.50;5151516;27;20083;-67
2022/05/10 01:09:55;;;;;;;1.52;0.52;;;;;;;19.22;28.89;99764.84;5152298;27;20122;-67
2022/05/10 01:12:39;;;;;;;0.82;0.50;;;;;;;19.23;28.92;99768.34;5151422;27;20082;-68
2022/05/10 01:15:15;;;;;;;1.85;0.60;;;;;;;19.18;29.17;99767.03;5169572;27;20030;-68
2022/05/10 01:17:42;;;;;;;1.70;0.50;;;;;;;19.16;28.90;99766.34;5170292;27;20106;-68
2022/05/10 01:20:09;;;;;;;1.10;0.50;;;;;;;19.13;28.86;99764.00;5163738;27;20022;-69
2022/05/10 01:22:50;;;;;;;1.15;0.50;;;;;;;19.11;28.92;99754.47;5154309;27;20038;-69
2022/05/10 01:25:19;;;;;;;;;;;;;;;19.02;28.90;99751.78;5151799;27;20019;-67
2022/05/10 01:27:56;;;;;;;0.38;0.38;;;;;;;18.99;28.87;99751.31;5150360;27;19911;-67
2022/05/10 01:30:28;;;;;;;1.30;0.75;;;;;;;18.95;29.00;99752.66;5163709;27;20054;-66
2022/05/10 01:35:50;;;;;;;1.13;0.68;;;;;;;18.84;29.12;99759.16;5171766;27;20037;-68
2022/05/10 01:38:38;;;;;;;1.15;0.75;;;;;;;18.79;28.94;99761.53;5170967;27;20038;-67
2022/05/10 01:41:32;;;;;;;0.95;0.70;;;;;;;18.74;28.94;99770.06;5157218;27;20393;-66
2022/05/10 01:44:03;;;;;;;2.30;0.50;;;;;;;18.72;28.80;99769.41;5170643;27;20396;-66
2022/05/10 01:46:31;;;;;;;1.30;0.57;;;;;;;18.70;29.03;99763.38;5171645;27;20034;-67
2022/05/10 01:49:09;;;;;;;2.30;0.57;;;;;;;18.69;29.15;99770.56;5171668;27;20042;-69
2022/05/10 01:51:59;;;;;;;1.95;0.45;;;;;;;18.65;29.24;99763.03;5171294;27;20536;-65
2022/05/10 01:54:40;;;;;;;0.68;0.45;;;;;;;18.63;29.26;99760.53;5152609;27;20130;-68
2022/05/10 01:57:16;;;;;;;1.45;0.60;;;;;;;18.57;29.30;99745.09;5169366;27;20469;-66
2022/05/10 01:59:53;;;;;;;2.03;0.52;;;;;;;18.53;29.40;99749.97;5171527;27;20125;-68
2022/05/10 02:02:23;;;;;;;1.02;0.50;;;;;;;18.53;29.34;99747.28;5170978;27;20489;-68
2022/05/10 02:04:53;;;;;;;0.80;0.40;;;;;;;18.50;29.35;99747.63;5170947;27;20117;-66
2022/05/10 02:07:22;;;;;;;1.13;0.50;;;;;;;18.51;29.21;99743.13;5160430;27;20077;-68
2022/05/10 02:10:01;;;;;;;0.50;0.40;;;;;;;18.52;29.12;99744.78;5138567;27;20035;-67
2022/05/10 02:12:33;;;;;;;0.40;0.30;;;;;;;18.45;29.33;99731.22;5156938;27;20039;-67
2022/05/10 02:15:07;;;;;;;1.90;0.55;;;;;;;18.49;29.44;99745.94;5157547;27;20393;-68
2022/05/10 02:17:41;;;;;;;1.70;0.60;;;;;;;18.46;29.37;99743.59;5149123;27;20062;-68
2022/05/10 02:20:16;;;;;;;0.80;0.50;;;;;;;18.49;29.24;99742.44;5152234;27;20566;-69
2022/05/10 02:22:54;;;;;;;9.30;0.93;;;;;;;18.54;29.35;99735.56;5156235;27;20031;-68
2022/05/10 02:25:26;;;;;;;2.17;0.85;;;;;;;18.61;29.14;99733.88;5157205;27;20027;-67
2022/05/10 02:28:05;;;;;;;1.23;0.73;;;;;;;18.67;28.99;99723.50;5156679;27;20058;-68
2022/05/10 02:30:34;;;;;;;1.10;0.60;;;;;;;18.74;28.87;99738.72;5157222;27;20113;-68
2022/05/10 02:33:07;;;;;;;0.40;0.40;;;;;;;18.75;28.90;99736.88;5154079;27;20035;-68
2022/05/10 02:35:49;;;;;;;1.50;0.55;;;;;;;18.74;28.97;99730.69;5156860;27;20375;-68
2022/05/10 02:38:19;;;;;;;0.80;0.50;;;;;;;18.72;29.02;99732.69;5156303;27;20027;-66
2022/05/10 02:40:46;;;;;;;3.08;0.60;;;;;;;18.71;29.03;99733.72;5156812;27;20446;-69
2022/05/10 02:43:16;;;;;;;2.78;1.00;;;;;;;18.74;28.96;99737.91;5156214;27;20034;-67
2022/05/10 02:45:42;;;;;;;1.10;0.47;;;;;;;18.72;29.09;99735.38;5156547;27;20482;-67
2022/05/10 02:48:33;;;;;;;3.90;0.55;;;;;;;18.72;29.01;99723.84;5154097;27;20033;-66
2022/05/10 02:50:59;;;;;;;0.77;0.40;;;;;;;18.68;29.32;99727.84;5156497;27;20091;-68
2022/05/10 02:53:26;;;;;;;1.50;0.50;;;;;;;18.69;28.84;99724.16;5156299;27;20030;-68
2022/05/10 02:56:02;;;;;;;0.98;0.57;;;;;;;18.69;28.99;99729.53;5156232;27;20047;-66
2022/05/10 02:58:42;;;;;;;1.95;0.70;;;;;;;18.67;29.06;99721.66;5155488;27;20034;-65
2022/05/10 03:01:50;;;;;;;2.95;0.60;;;;;;;18.67;28.84;99724.34;5136027;27;20539;-67
2022/05/10 03:04:16;;;;;;;1.00;0.45;;;;;;;18.66;29.19;99733.41;5146861;27;20022;-68
2022/05/10 03:06:44;;;;;;;3.00;0.40;;;;;;;18.68;29.21;99728.69;5138181;27;20167;-68
2022/05/10 03:09:10;;;;;;;1.70;0.40;;;;;;;18.73;29.12;99723.66;5137488;27;20030;-68
2022/05/10 03:11:37;;;;;;;0.73;0.40;;;;;;;18.84;29.06;99714.44;5155771;27;20053;-68
2022/05/10 03:14:05;;;;;;;1.10;0.50;;;;;;;18.96;29.00;99716.78;5156216;27;20426;-68
2022/05/10 03:16:30;;;;;;;1.25;0.60;;;;;;;19.13;28.67;99710.38;5155665;27;20034;-66
2022/05/10 03:18:56;;;;;;;0.90;0.50;;;;;;;19.44;28.28;99716.78;5146993;27;20042;-69
2022/05/10 03:21:23;;;;;;;1.98;0.57;;;;;;;19.70;27.77;99708.44;5155311;27;20034;-67
2022/05/10 03:23:48;;;;;;;0.88;0.60;;;;;;;19.92;27.68;99712.19;5155133;27;20113;-67
2022/05/10 03:26:17;;;;;;;3.25;0.95;;;;;;;20.00;27.52;99714.00;5156200;27;20158;-68
2022/05/10 03:28:43;;;;;;;1.77;0.80;;;;;;;20.01;27.67;99714.81;5155779;27;20062;-70
2022/05/10 03:31:10;;;;;;;1.02;0.50;;;;;;;20.01;27.66;99723.72;5152395;27;20130;-67
2022/05/10 03:33:35;;;;;;;1.25;0.60;;;;;;;19.98;27.61;99718.72;5135934;27;20407;-67
2022/05/10 03:36:01;;;;;;;1.80;0.75;;;;;;;19.95;27.51;99709.16;5134969;27;20038;-70
2022/05/10 03:38:26;;;;;;;0.80;0.63;;;;;;;19.94;27.49;99706.66;5149771;27;20050;-68
2022/05/10 03:40:52;;;;;;;1.63;0.70;;;;;;;19.89;27.15;99707.19;5155595;27;20062;-66
2022/05/10 03:43:18;;;;;;;2.22;0.60;;;;;;;19.88;27.49;99710.88;5154906;27;20048;-68
2022/05/10 03:45:43;;;;;;;1.80;0.50;;;;;;;19.88;27.25;99712.75;5155566;27;20037;-67
2022/05/10 03:48:09;;;;;;;2.25;0.68;;;;;;;19.86;27.20;99706.69;5153200;27;20041;-68
2022/05/10 03:50:35;;;;;;;0.93;0.60;;;;;;;19.87;27.29;99697.63;5148596;27;20080;-66
2022/05/10 03:53:01;;;;;;;1.88;0.70;;;;;;;19.93;27.37;99695.06;5145437;27;20050;-68
2022/05/10 03:55:28;;;;;;;1.95;0.80;;;;;;;20.01;27.32;99688.81;5155190;27;20509;-69
2022/05/10 03:57:54;;;;;;;1.70;0.65;;;;;;;20.06;27.11;99680.22;5155332;27;20037;-68
2022/05/10 04:00:24;;;;;;;1.25;0.55;;;;;;;20.16;26.93;99682.66;5155331;27;20053;-71
2022/05/10 04:02:50;;;;;;;1.35;0.55;;;;;;;20.18;26.94;99684.16;5152618;27;20396;-67
2022/05/10 04:05:17;;;;;;;1.75;0.88;;;;;;;20.17;27.15;99679.78;5154884;27;20030;-68
2022/05/10 04:07:43;;;;;;;1.23;0.60;;;;;;;20.17;26.71;99678.97;5154770;27;20121;-67
2022/05/10 04:10:12;;;;;;;1.20;0.70;;;;;;;20.15;27.01;99678.31;5155314;27;20058;-68
2022/05/10 04:12:38;;;;;;;1.40;0.70;;;;;;;20.17;26.92;99678.97;5154197;27;20061;-69
2022/05/10 04:15:06;;;;;;;1.23;0.40;;;;;;;20.22;26.84;99676.59;5155353;27;20125;-67
2022/05/10 04:17:31;;;;;;;1.92;0.80;;;;;;;20.28;26.50;99663.25;5151906;27;20500;-69
2022/05/10 04:19:57;;;;;;;1.75;0.70;;;;;;;20.37;26.47;99674.75;5154697;27;20030;-69
2022/05/10 04:22:22;;;;;;;0.73;0.40;;;;;;;20.48;26.38;99675.34;5153963;27;20083;-67
2022/05/10 04:24:48;;;;;;;2.45;1.25;;;;;;;20.63;26.32;99675.34;5154845;27;20030;-70
2022/05/10 04:27:13;;;;;;;3.50;0.77;;;;;;;20.71;25.95;99670.72;5154393;27;20053;-67
2022/05/10 04:29:39;;;;;;;3.38;0.80;;;;;;;20.83;26.29;99673.84;5154449;27;20485;-70
2022/05/10 04:32:05;;;;;;;2.78;0.68;;;;;;;20.94;25.77;99672.56;5154316;27;20052;-70
2022/05/10 04:34:30;;;;;;;3.85;0.70;;;;;;;21.10;25.69;99678.78;5151830;27;20030;-70
2022/05/10 04:36:56;;;;;;;1.30;0.40;;;;;;;21.32;25.47;99664.34;5154496;27;20039;-67
2022/05/10 04:39:21;;;;;;;1.50;0.50;;;;;;;21.57;25.22;99669.38;5152993;27;20073;-70
2022/05/10 04:41:51;;;;;;;1.33;0.60;;;;;;;21.73;24.91;99665.69;5134036;27;20031;-70
2022/05/10 04:44:17;;;;;;;1.48;0.60;;;;;;;21.91;24.78;99675.19;5154357;27;20065;-68
2022/05/10 04:46:42;;;;;;;0.75;0.40;;;;;;;22.01;24.46;99674.84;5154427;27;20470;-68
2022/05/10 04:49:11;;;;;;;3.45;0.68;;;;;;;22.01;24.52;99669.47;5152304;27;20117;-67
2022/05/10 04:51:38;;;;;;;2.65;0.68;;;;;;;22.04;24.49;99663.69;5153732;27;20087;-68
2022/05/10 04:54:04;;;;;;;1.45;0.70;;;;;;;22.05;24.34;99663.50;5154463;27;20029;-70
2022/05/10 04:56:30;;;;;;;2.25;0.60;;;;;;;22.09;24.32;99664.78;5153894;27;20119;-69
2022/05/10 04:58:55;;;;;;;1.80;0.50;;;;;;;22.15;24.24;99665.84;5154752;27;20046;-69
2022/05/10 05:01:28;;;;;;;3.13;0.50;;;;;;;22.19;24.04;99655.53;5154039;27;20069;-69
2022/05/10 05:03:59;;;;;;;1.85;0.47;;;;;;;22.21;24.10;99648.94;5151535;27;20075;-66
2022/05/10 05:06:26;;;;;;;0.60;0.40;;;;;;;22.27;24.19;99650.00;5154592;27;20023;-69
2022/05/10 05:08:52;;;;;;;0.95;0.50;;;;;;;22.31;24.17;99661.22;5154294;27;20400;-66
2022/05/10 05:11:17;;;;;;;2.22;1.17;;;;;;;22.31;23.91;99637.81;5153930;27;20779;-65
2022/05/10 05:13:43;;;;;;;2.40;0.60;;;;;;;22.35;23.96;99638.25;5153595;27;20038;-67
2022/05/10 05:16:09;;;;;;;3.15;0.70;;;;;;;22.39;23.89;99650.31;5154173;27;20125;-67
2022/05/10 05:18:34;;;;;;;1.42;0.70;;;;;;;22.36;23.98;99631.81;5154425;27;20086;-66
2022/05/10 05:21:00;;;;;;;1.65;0.43;;;;;;;22.39;23.86;99636.84;5151487;27;20053;-66
2022/05/10 05:23:25;;;;;;;0.85;0.50;;;;;;;22.40;23.84;99627.72;5154216;27;20087;-66
2022/05/10 05:25:55;;;;;;;1.27;0.82;;;;;;;22.38;23.82;99629.78;5153766;27;20117;-67
2022/05/10 05:28:21;;;;;;;1.17;0.47;;;;;;;22.39;23.89;99618.78;5153188;27;20529;-69
2022/05/10 05:30:47;;;;;;;3.67;0.52;;;;;;;22.40;23.96;99612.38;5151315;27;20039;-66
2022/05/10 05:33:13;;;;;;;1.20;0.52;;;;;;;22.40;23.70;99608.84;5154243;27;20038;-69
2022/05/10 05:35:39;;;;;;;2.45;0.55;;;;;;;22.40;23.94;99596.19;5151444;27;20038;-67
2022/05/10 05:38:05;;;;;;;2.53;0.60;;;;;;;22.42;23.73;99604.13;5154072;27;20042;-68
2022/05/10 05:40:33;;;;;;;1.02;0.40;;;;;;;22.46;23.70;99596.47;5153720;27;20035;-69
2022/05/10 05:42:59;;;;;;;0.77;0.50;;;;;;;22.49;23.42;99596.09;5156798;27;20034;-68
2022/05/10 05:45:25;;;;;;;0.63;0.40;;;;;;;22.46;23.36;99591.91;5157625;27;20481;-67
2022/05/10 05:47:51;;;;;;;0.30;0.28;;;;;;;22.34;23.29;99588.06;5157602;27;20034;-66
2022/05/10 05:50:20;;;;;;;3.42;0.70;;;;;;;22.24;23.30;99588.41;5155682;27;20042;-66
2022/05/10 05:52:47;;;;;;;1.95;0.45;;;;;;;22.14;23.53;99579.84;5157812;27;20477;-68
2022/05/10 05:55:13;;;;;;;0.95;0.45;;;;;;;22.08;23.57;99584.16;5157302;27;20054;-67
2022/05/10 05:57:39;;;;;;;0.80;0.47;;;;;;;22.11;23.41;99583.75;5156542;27;20091;-67
2022/05/10 06:00:11;;;;;;;0.65;0.30;;;;;;;22.12;23.46;99584.59;5157021;27;20035;-67
2022/05/10 06:02:37;;;;;;;1.33;0.50;;;;;;;22.06;23.37;99578.13;5156784;27;20121;-66
2022/05/10 06:05:05;;;;;;;2.55;0.63;;;;;;;22.00;23.28;99581.56;5157597;27;20054;-66
2022/05/10 06:07:31;;;;;;;0.65;0.40;;;;;;;21.92;23.30;99580.72;5154921;27;20493;-66
2022/05/10 06:09:57;;;;;;;0.75;0.32;;;;;;;21.86;23.24;99568.00;5157481;27;20038;-67
2022/05/10 06:12:22;;;;;;;1.35;0.63;;;;;;;21.85;23.51;99570.91;5156689;27;20117;-66
2022/05/10 06:14:48;;;;;;;0.85;0.45;;;;;;;21.87;23.37;99564.28;5157130;27;20130;-67
2022/05/10 06:17:15;;;;;;;0.88;0.32;;;;;;;21.80;23.17;99561.53;5156452;27;20027;-67
2022/05/10 06:19:42;;;;;;;0.70;0.40;;;;;;;21.74;23.35;99562.31;5145542;27;20038;-67
2022/05/10 06:22:10;;;;;;;5.43;0.60;;;;;;;21.67;23.09;99565.97;5154003;27;20027;-68
2022/05/10 06:24:35;;;;;;;0.68;0.40;;;;;;;21.60;23.19;99561.34;5156831;27;20033;-67
2022/05/10 06:27:03;;;;;;;2.80;0.47;;;;;;;21.60;23.20;99552.47;5156555;27;20034;-68
2022/05/10 06:29:29;;;;;;;0.55;0.45;;;;;;;21.55;23.26;99552.97;5156428;27;20119;-69
2022/05/10 06:31:54;;;;;;;1.30;0.32;;;;;;;21.53;23.01;99543.44;5156877;27;20072;-70
2022/05/10 06:34:20;;;;;;;3.03;0.63;;;;;;;21.50;23.21;99544.66;5137764;27;20095;-68
2022/05/10 06:36:45;;;;;;;1.05;0.50;;;;;;;21.49;23.00;99543.81;5154313;27;20054;-68
2022/05/10 06:39:11;;;;;;;0.85;0.40;;;;;;;21.45;22.97;99555.16;5156540;27;20445;-68
2022/05/10 06:41:37;;;;;;;3.28;0.60;;;;;;;21.40;23.06;99547.66;5156926;27;20062;-68
2022/05/10 06:44:04;;;;;;;0.50;0.40;;;;;;;21.39;23.07;99542.50;5156817;27;20045;-67
2022/05/10 06:46:32;;;;;;;1.55;0.60;;;;;;;21.39;22.78;99535.25;5156724;27;20054;-68
2022/05/10 06:48:58;;;;;;;0.47;0.38;;;;;;;21.38;22.79;99527.38;5156168;27;20045;-69
2022/05/10 06:51:25;;;;;;;3.80;1.20;;;;;;;21.39;23.00;99534.41;5154217;27;20038;-67
2022/05/10 06:53:52;;;;;;;1.52;0.40;;;;;;;21.40;22.90;99536.91;5153249;27;20034;-67
2022/05/10 06:56:17;;;;;;;4.03;0.45;;;;;;;21.38;22.81;99530.06;5156036;27;20054;-67
2022/05/10 06:58:43;;;;;;;1.55;0.88;;;;;;;21.32;22.90;99524.41;5155756;27;20489;-67
2022/05/10 07:01:13;;;;;;;5.13;0.40;;;;;;;21.29;22.80;99521.28;5155936;27;20026;-67
2022/05/10 07:03:40;;;;;;;2.28;0.40;;;;;;;21.29;22.84;99515.88;5152645;27;20042;-67
2022/05/10 07:06:07;;;;;;;1.67;0.70;;;;;;;21.29;22.78;99532.03;5156421;27;20113;-69
2022/05/10 07:08:33;;;;;;;1.85;0.40;;;;;;;21.23;22.73;99509.41;5152869;27;20157;-67
2022/05/10 07:10:59;;;;;;;4.00;0.50;;;;;;;21.19;22.84;99508.13;5156542;27;20081;-68
2022/05/10 07:13:27;;;;;;;3.60;0.68;;;;;;;21.14;22.85;99514.09;5156373;27;20030;-68
2022/05/10 07:15:53;;;;;;;1.33;0.60;;;;;;;21.12;22.77;99517.97;5156149;27;20034;-68
2022/05/10 07:18:19;;;;;;;6.43;0.65;;;;;;;21.08;22.51;99500.56;5154888;27;20030;-68
2022/05/10 07:20:46;;;;;;;0.90;0.50;;;;;;;21.02;22.73;99488.72;5156132;27;20035;-68
2022/05/10 07:23:13;;;;;;;1.77;0.75;;;;;;;20.96;22.91;99500.22;5152802;27;20473;-71
2022/05/10 07:25:40;;;;;;;2.53;0.40;;;;;;;20.92;22.53;99499.78;5155423;27;20034;-69
2022/05/10 07:28:06;;;;;;;1.48;0.50;;;;;;;20.88;22.50;99503.84;5136376;27;20058;-68
2022/05/10 07:30:33;;;;;;;1.20;0.40;;;;;;;20.84;22.56;99497.19;5155025;27;20044;-69
2022/05/10 07:32:59;;;;;;;4.82;0.40;;;;;;;20.77;22.37;99497.09;5155172;27;20038;-69
2022/05/10 07:38:12;;;;;;;2.53;0.45;;;;;;;20.68;22.15;99504.41;5153504;27;20174;-67
2022/05/10 07:40:38;;;;;;;1.95;0.45;;;;;;;20.65;22.26;99501.25;5141755;27;20039;-67
2022/05/10 07:43:06;;;;;;;3.58;0.52;;;;;;;20.66;22.08;99501.06;5134251;27;20027;-66
2022/05/10 07:45:32;;;;;;;0.90;0.32;;;;;;;20.61;21.86;99486.53;5134365;27;20027;-68
2022/05/10 07:47:58;;;;;;;1.15;0.47;;;;;;;20.62;22.00;99472.91;5141692;27;20065;-67
2022/05/10 07:50:24;;;;;;;1.30;0.60;;;;;;;20.63;22.31;99482.66;5155380;27;20493;-68
2022/05/10 07:52:49;;;;;;;0.95;0.45;;;;;;;20.67;22.16;99469.66;5154969;27;20550;-67
2022/05/10 07:55:15;;;;;;;2.28;0.75;;;;;;;20.66;22.10;99476.88;5153097;27;20053;-68
2022/05/10 07:57:44;;;;;;;1.73;0.80;;;;;;;20.63;22.19;99463.84;5154044;27;20042;-69
2022/05/10 08:00:12;;;;;;;7.00;0.52;;;;;;;20.64;22.61;99476.25;5154991;27;20045;-69
2022/05/10 08:02:42;;;;;;;4.22;1.23;;;;;;;20.67;22.24;99469.66;5154820;27;20109;-68
2022/05/10 08:05:09;;;;;;;1.60;0.55;;;;;;;20.61;22.12;99460.50;5154710;27;20031;-68
2022/05/10 08:07:35;;;;;;;3.35;0.57;;;;;;;20.54;22.28;99478.38;5135643;27;20511;-67
2022/05/10 08:10:01;;;;;;;0.68;0.30;;;;;;;20.51;22.12;99457.28;5152837;27;20030;-67
2022/05/10 08:12:26;;;;;;;3.13;0.50;;;;;;;20.47;22.08;99451.41;5154702;27;20027;-68
2022/05/10 08:14:52;;;;;;;2.85;0.45;;;;;;;20.41;22.17;99455.69;5154920;27;20031;-68
2022/05/10 08:17:17;;;;;;;0.85;0.40;;;;;;;20.39;22.16;99451.53;5154397;27;20061;-68
2022/05/10 08:19:45;;;;;;;2.10;0.60;;;;;;;20.36;22.35;99460.81;5154764;27;20377;-68
2022/05/10 08:22:11;;;;;;;1.88;0.70;;;;;;;20.40;22.55;99443.28;5154394;27;20031;-68
2022/05/10 08:24:36;;;;;;;2.28;0.50;;;;;;;20.42;22.24;99456.53;5154843;27;20094;-69
2022/05/10 08:27:02;;;;;;;0.98;0.40;;;;;;;20.38;22.35;99439.13;5151924;27;20047;-66
2022/05/10 08:29:28;;;;;;;1.67;0.63;;;;;;;20.33;22.62;99426.25;5142909;27;20027;-67
2022/05/10 08:31:53;;;;;;;0.75;0.50;;;;;;;20.31;22.58;99425.59;5133892;27;20033;-67
2022/05/10 08:34:19;;;;;;;2.65;0.70;;;;;;;20.25;22.32;99419.13;5133984;27;20493;-68
2022/05/10 08:36:46;;;;;;;1.17;0.43;;;;;;;20.26;22.06;99428.84;5133469;27;20437;-68
2022/05/10 08:39:13;;;;;;;2.45;0.50;;;;;;;20.22;22.08;99407.94;5150606;27;20038;-68
2022/05/10 08:42:10;;;;;;;2.58;0.73;;;;;;;20.15;21.94;99429.31;5149224;27;20039;-67
2022/05/10 08:44:39;;;;;;;2.45;0.40;;;;;;;20.10;22.11;99412.94;5087929;27;20474;-69
2022/05/10 08:47:07;;;;;;;5.20;0.50;;;;;;;20.07;22.09;99392.63;5133564;27;20050;-68
2022/05/10 08:49:43;;;;;;;2.88;0.60;;;;;;;20.07;22.06;99389.94;5133420;27;20043;-68
2022/05/10 08:52:10;;;;;;;2.28;0.80;;;;;;;20.13;22.04;99409.88;5152046;27;20038;-69
2022/05/10 08:54:38;;;;;;;3.10;0.63;;;;;;;20.15;21.84;99398.94;5153987;27;20098;-68
2022/05/10 08:57:24;;;;;;;3.22;0.70;;;;;;;20.08;22.04;99399.66;5151807;27;20034;-67
2022/05/10 09:00:04;;;;;;;2.58;0.60;;;;;;;20.06;22.01;99385.63;5153981;27;20133;-68
2022/05/10 09:02:41;;;;;;;1.17;0.45;;;;;;;20.09;22.05;99382.53;5153362;27;20042;-67
2022/05/10 09:05:25;;;;;;;1.40;0.60;;;;;;;20.07;22.07;99379.19;5154102;27;20559;-67
2022/05/10 09:08:21;;;;;;;4.72;0.93;;;;;;;20.03;22.45;99358.28;5153996;27;20388;-66
2022/05/10 09:10:46;;;;;;;0.98;0.40;;;;;;;20.06;22.42;99366.81;5153852;27;20276;-66
2022/05/10 09:13:16;;;;;;;1.63;0.47;;;;;;;20.08;22.17;99363.94;5143189;27;20039;-68
2022/05/10 09:15:59;;;;;;;1.98;1.00;;;;;;;20.06;21.96;99361.44;5133350;27;20092;-68
2022/05/10 09:18:40;;;;;;;5.15;0.50;;;;;;;20.01;21.78;99373.75;5144715;27;20039;-68
2022/05/10 09:21:33;;;;;;;2.22;0.50;;;;;;;19.97;21.71;99379.50;5137758;27;20103;-67
2022/05/10 09:24:09;;;;;;;1.85;0.60;;;;;;;19.96;21.53;99382.38;5154181;27;20087;-66
2022/05/10 09:26:42;;;;;;;2.85;0.50;;;;;;;19.90;21.54;99372.38;5157793;27;20038;-70
2022/05/10 09:29:26;;;;;;;3.35;0.60;;;;;;;19.84;21.40;99384.69;5158195;27;20076;-69
2022/05/10 09:34:46;;;;;;;1.38;0.60;;;;;;;19.78;21.68;99383.53;5158107;27;20041;-70
2022/05/10 09:37:35;;;;;;;1.25;0.40;;;;;;;19.79;21.30;99387.88;5138811;27;20406;-67
2022/05/10 09:40:10;;;;;;;12.02;0.85;;;;;;;19.73;21.32;99385.97;5156217;27;20083;-68
2022/05/10 09:42:39;;;;;;;2.45;0.63;;;;;;;19.65;21.27;99376.16;5157346;27;20065;-68
2022/05/10 09:45:23;;;;;;;3.47;0.55;;;;;;;19.52;21.49;99368.72;5158505;27;20026;-69
2022/05/10 09:48:09;;;;;;;6.97;0.73;;;;;;;19.55;21.74;99362.16;5157560;27;20041;-69
2022/05/10 09:50:39;;;;;;;4.40;0.70;;;;;;;19.59;21.38;99390.28;5150353;27;20526;-69
2022/05/10 09:53:19;;;;;;;1.45;0.55;;;;;;;19.58;21.77;99377.06;5136220;27;20075;-68
2022/05/10 09:55:58;;;;;;;4.32;0.77;;;;;;;19.54;21.78;99381.13;5136451;27;20054;-70
2022/05/10 09:58:30;;;;;;;1.25;0.47;;;;;;;19.54;21.81;99381.97;5149607;27;20039;-69
2022/05/10 10:00:58;;;;;;;3.92;0.60;;;;;;;19.57;21.81;99410.28;5157792;27;20117;-69
2022/05/10 10:03:37;;;;;;;2.92;0.70;;;;;;;19.54;21.70;99395.38;5157139;27;20489;-69
2022/05/10 10:06:16;;;;;;;3.42;0.68;;;;;;;19.46;21.83;99395.44;5157600;27;20143;-68
2022/05/10 10:08:45;;;;;;;3.10;0.50;;;;;;;19.46;21.66;99393.63;5157034;27;20022;-68
2022/05/10 10:11:21;;;;;;;5.72;0.80;;;;;;;19.35;21.60;99399.41;5156267;27;20555;-69
2022/05/10 10:13:50;;;;;;;1.23;0.60;;;;;;;19.33;21.79;99393.41;5157170;27;20035;-68
2022/05/10 10:16:25;;;;;;;1.95;0.60;;;;;;;19.31;21.87;99382.03;5156602;27;20087;-68
2022/05/10 10:18:55;;;;;;;1.20;0.38;;;;;;;19.29;21.85;99381.38;5156914;27;20544;-68
2022/05/10 10:21:44;;;;;;;1.67;0.63;;;;;;;19.29;21.78;99365.28;5157198;27;20525;-68
2022/05/10 10:24:23;;;;;;;1.77;0.80;;;;;;;19.28;22.08;99385.88;5156800;27;20030;-69
2022/05/10 10:26:53;;;;;;;3.25;0.60;;;;;;;19.30;21.94;99380.34;5156288;27;20030;-68
2022/05/10 10:29:32;;;;;;;7.72;0.80;;;;;;;19.28;22.13;99369.78;5156531;27;20397;-69
2022/05/10 10:32:07;;;;;;;2.20;0.63;;;;;;;19.21;22.05;99364.31;5156868;27;20042;-69
2022/05/10 10:34:52;;;;;;;1.45;0.57;;;;;;;19.15;22.15;99351.66;5156556;27;20554;-69
2022/05/10 10:37:36;;;;;;;3.15;0.63;;;;;;;19.10;22.15;99366.63;5155551;27;20099;-66
2022/05/10 10:40:02;;;;;;;5.75;0.60;;;;;;;19.06;22.44;99363.44;5154698;27;20022;-67
2022/05/10 10:42:39;;;;;;;2.65;0.60;;;;;;;19.08;22.29;99358.72;5155932;27;20515;-67
2022/05/10 10:45:12;;;;;;;2.70;0.88;;;;;;;19.08;22.48;99382.88;5156532;27;20101;-68
2022/05/10 10:48:01;;;;;;;1.00;0.40;;;;;;;19.04;22.48;99360.94;5155024;27;20553;-66
2022/05/10 10:50:31;;;;;;;2.72;0.80;;;;;;;18.96;22.72;99381.63;5153964;27;20046;-68
2022/05/10 10:52:58;;;;;;;3.92;0.95;;;;;;;18.96;23.01;99374.44;5146002;27;20201;-69
2022/05/10 10:55:43;;;;;;;3.08;0.80;;;;;;;19.04;22.93;99373.53;5154448;27;20086;-69
2022/05/10 10:58:21;;;;;;;1.77;0.70;;;;;;;19.01;22.94;99379.25;5149253;27;20061;-67
2022/05/10 11:00:55;;;;;;;13.00;1.45;;;;;;;19.04;23.55;99363.63;5145409;27;20039;-70
2022/05/10 11:03:39;;;;;;;3.47;0.90;;;;;;;19.12;23.91;99375.28;5147209;27;20168;-69
2022/05/10 11:06:47;;;;;;;3.38;0.65;;;;;;;19.19;24.41;99387.78;5146191;27;20438;-68
2022/05/10 11:09:50;;;;;;;4.80;0.82;;;;;;;19.27;24.04;99396.81;5053715;28;20431;-72
2022/05/10 11:12:52;;;;;;;2.10;0.73;;;;;;;19.31;24.88;99393.56;5152538;27;20034;-70
2022/05/10 11:15:29;;;;;;;3.03;0.65;;;;;;;19.35;24.80;99397.56;5153624;27;20737;-71
2022/05/10 11:18:15;;;;;;;0.80;0.32;;;;;;;19.46;24.24;99393.63;5142154;27;20449;-69
2022/05/10 11:20:55;;;;;;;2.17;0.98;;;;;;;19.61;23.73;99401.69;5151779;27;20049;-70
2022/05/10 11:23:34;;;;;;;0.93;0.70;;;;;;;19.80;24.29;99405.66;5143668;27;20031;-69
2022/05/10 11:26:21;;;;;;;3.88;0.90;;;;;;;19.95;24.18;99413.78;5136826;27;20166;-70
2022/05/10 11:29:05;;;;;;;2.25;0.63;;;;;;;20.11;24.50;99406.53;5152461;27;20041;-67
2022/05/10 11:31:45;;;;;;;3.78;0.60;;;;;;;20.24;23.33;99397.81;5140869;27;20035;-68
2022/05/10 11:34:30;;;;;;;2.42;0.75;;;;;;;20.33;23.35;99399.38;5150198;27;20113;-68
2022/05/10 11:36:59;;;;;;;3.38;0.90;;;;;;;20.39;23.18;99414.75;5137441;27;20065;-69
2022/05/10 11:39:28;;;;;;;1.10;0.65;;;;;;;20.47;23.35;99437.16;5152328;27;20473;-67
2022/05/10 11:42:11;;;;;;;1.58;0.60;;;;;;;20.53;23.30;99436.41;5151578;27;20045;-68
2022/05/10 11:45:02;;;;;;;1.65;1.13;;;;;;;20.57;23.72;99437.69;5154542;27;20039;-69
2022/05/10 11:47:55;;;;;;;4.57;0.70;;;;;;;20.62;23.52;99448.72;5135131;27;20433;-69
2022/05/10 11:51:38;;;;;;;1.38;0.50;;;;;;;20.69;23.55;99454.19;5154227;27;20497;-71
2022/05/10 11:54:00;;;;;;;5.25;0.80;;;;;;;20.73;23.87;99461.66;5149021;27;20091;-73
2022/05/10 11:57:56;;;;;;;2.80;0.65;;;;;;;20.82;23.92;99446.28;5134487;27;20298;-68
2022/05/10 12:00:31;;;;;;;5.43;0.70;;;;;;;20.88;24.35;99463.50;5111074;28;20035;-68
2022/05/10 12:03:04;;;;;;;1.90;0.85;;;;;;;20.93;24.76;99444.13;5129664;28;20084;-68
2022/05/10 12:05:41;;;;;;;1.90;0.68;;;;;;;21.00;24.80;99456.59;5130514;28;20046;-69